Time;durP1;ratioP1;P1;durP2;ratioP2;P2;SDS_P1;SDS_P2;PMS_P1;PMS_P2;Temp;Humidity;BMP_temperature;BMP_pressure;BME280_temperature;BME280_humidity;BME280_pressure;Samples;Min_cycle;Max_cycle;Signal;HPM_P1;HPM_P2
2022/12/24 00:04:02;;;;;;;;;;;;;;;;;;;;;
2022/12/24 00:10:42;;;;;;;0.00;0.00;;;;;;;7.01;100.00;99479.59;6145301;23;20009;-80
2022/12/24 00:13:47;;;;;;;;;;;;;;;;;;;;;
2022/12/24 00:28:30;;;;;;;;;;;;;;;;;;;;;
2022/12/24 00:35:20;;;;;;;;;;;;;;;;;;;;;
2022/12/24 00:38:34;;;;;;;;;;;;;;;;;;;;;
2022/12/24 00:48:27;;;;;;;0.00;0.00;;;;;;;8.11;100.00;99515.75;5773090;24;20016;-82
2022/12/24 00:51:50;;;;;;;;;;;;;;;;;;;;;
2022/12/24 00:58:35;;;;;;;0.00;0.00;;;;;;;7.57;100.00;99510.78;5843685;24;20013;-85
2022/12/24 01:05:24;;;;;;;;;;;;;;;;;;;;;
2022/12/24 01:07:53;;;;;;;0.00;0.00;;;;;;;7.23;100.00;99511.19;5930965;24;20044;-82
2022/12/24 01:18:00;;;;;;;;;;;;;;;;;;;;;
2022/12/24 01:20:30;;;;;;;0.00;0.00;;;;;;;6.92;100.00;99521.94;6255856;22;20043;-80
2022/12/24 01:22:55;;;;;;;0.00;0.00;;;;;;;6.80;100.00;99503.97;6253934;22;20007;-80
2022/12/24 01:25:28;;;;;;;0.10;0.10;;;;;;;6.85;100.00;99513.19;6278209;22;20010;-82
2022/12/24 01:27:54;;;;;;;0.00;0.00;;;;;;;6.86;100.00;99514.84;6253320;22;20006;-79
2022/12/24 01:30:40;;;;;;;0.00;0.00;;;;;;;6.89;100.00;99533.34;6247738;22;20008;-78
2022/12/24 01:33:08;;;;;;;0.00;0.00;;;;;;;6.80;100.00;99517.53;6251506;22;20616;-75
2022/12/24 01:35:41;;;;;;;0.00;0.00;;;;;;;7.03;100.00;99545.38;6267727;22;20000;-74
2022/12/24 01:38:07;;;;;;;0.00;0.00;;;;;;;7.07;100.00;99546.50;6245530;22;20087;-74
2022/12/24 01:43:25;;;;;;;0.08;0.08;;;;;;;7.16;100.00;99560.41;6274484;22;20327;-70
2022/12/24 01:45:50;;;;;;;0.00;0.00;;;;;;;7.15;100.00;99559.59;6268562;22;20003;-74
2022/12/24 01:48:27;;;;;;;0.00;0.00;;;;;;;7.08;100.00;99548.13;6272363;22;20082;-76
2022/12/24 01:51:14;;;;;;;0.00;0.00;;;;;;;6.98;100.00;99548.09;6240519;22;20018;-73
2022/12/24 01:53:44;;;;;;;0.00;0.00;;;;;;;7.05;100.00;99559.50;6269856;22;20003;-75
2022/12/24 01:56:11;;;;;;;0.00;0.00;;;;;;;6.96;100.00;99551.03;6266856;22;20004;-74
2022/12/24 01:58:41;;;;;;;0.00;0.00;;;;;;;6.92;100.00;99554.53;6220287;22;20004;-75
2022/12/24 02:01:06;;;;;;;0.10;0.10;;;;;;;6.93;100.00;99572.50;6240719;22;20000;-75
2022/12/24 02:03:32;;;;;;;0.00;0.00;;;;;;;6.89;100.00;99587.69;6270684;22;20004;-75
2022/12/24 02:05:59;;;;;;;0.00;0.00;;;;;;;6.85;100.00;99586.56;6272918;22;20007;-73
2022/12/24 02:08:38;;;;;;;0.00;0.00;;;;;;;6.87;100.00;99589.88;6215379;22;20010;-74
2022/12/24 02:11:15;;;;;;;0.10;0.10;;;;;;;6.85;100.00;99570.25;6271950;22;20010;-75
2022/12/24 02:13:45;;;;;;;0.00;0.00;;;;;;;6.81;100.00;99573.50;6268934;22;20038;-73
2022/12/24 02:16:48;;;;;;;0.00;0.00;;;;;;;6.80;100.00;99580.03;6271412;22;20004;-74
2022/12/24 02:19:34;;;;;;;0.00;0.00;;;;;;;6.79;100.00;99581.13;6242264;22;20004;-75
2022/12/24 02:22:15;;;;;;;0.00;0.00;;;;;;;6.89;100.00;99587.69;6240101;22;20011;-74
2022/12/24 02:25:22;;;;;;;0.00;0.00;;;;;;;6.93;100.00;99589.63;6240063;22;20000;-75
2022/12/24 02:27:59;;;;;;;0.00;0.00;;;;;;;6.93;100.00;99588.81;6271935;22;20014;-75
2022/12/24 02:30:40;;;;;;;0.00;0.00;;;;;;;6.98;100.00;99586.13;6265762;22;20011;-75
2022/12/24 02:33:36;;;;;;;0.00;0.00;;;;;;;6.95;100.00;99597.50;6272072;22;20392;-76
2022/12/24 02:36:14;;;;;;;0.00;0.00;;;;;;;6.89;100.00;99598.56;6243200;22;20221;-75
2022/12/24 02:38:51;;;;;;;0.10;0.10;;;;;;;6.85;100.00;99592.84;6269114;22;20410;-74
2022/12/24 02:41:22;;;;;;;0.00;0.00;;;;;;;6.79;100.00;99602.84;6243605;22;20049;-75
2022/12/24 02:43:50;;;;;;;0.00;0.00;;;;;;;6.75;100.00;99601.75;6242169;22;20410;-74
2022/12/24 02:46:23;;;;;;;0.00;0.00;;;;;;;6.77;100.00;99607.72;6267648;22;20008;-74
2022/12/24 02:48:49;;;;;;;0.00;0.00;;;;;;;6.78;100.00;99614.81;6243379;22;20721;-74
2022/12/24 02:51:15;;;;;;;0.00;0.00;;;;;;;6.77;100.00;99613.16;6273448;22;20030;-74
2022/12/24 02:53:41;;;;;;;0.00;0.00;;;;;;;6.74;100.00;99600.09;6273435;22;19999;-74
2022/12/24 02:56:25;;;;;;;0.03;0.03;;;;;;;6.74;100.00;99613.69;6239993;22;20003;-75
2022/12/24 02:59:12;;;;;;;0.10;0.10;;;;;;;6.75;100.00;99607.16;6244407;22;20011;-74
2022/12/24 03:01:49;;;;;;;0.00;0.00;;;;;;;6.74;100.00;99608.25;6246966;22;20042;-73
2022/12/24 03:04:38;;;;;;;0.00;0.00;;;;;;;6.73;100.00;99617.50;6245868;22;20011;-74
2022/12/24 03:07:20;;;;;;;0.00;0.00;;;;;;;6.71;100.00;99625.06;6244270;22;20015;-73
2022/12/24 03:10:13;;;;;;;0.00;0.00;;;;;;;6.71;100.00;99633.22;6272435;22;20019;-74
2022/12/24 03:12:45;;;;;;;0.00;0.00;;;;;;;6.67;100.00;99634.81;6243650;22;20019;-75
2022/12/24 03:15:14;;;;;;;0.00;0.00;;;;;;;6.61;100.00;99630.41;6234467;22;20108;-75
2022/12/24 03:17:54;;;;;;;0.00;0.00;;;;;;;6.52;100.00;99610.25;6271800;22;20342;-73
2022/12/24 03:20:30;;;;;;;0.10;0.10;;;;;;;6.56;100.00;99614.09;6240395;22;20000;-75
2022/12/24 03:22:56;;;;;;;0.10;0.10;;;;;;;6.52;100.00;99629.28;6246280;22;20008;-75
2022/12/24 03:25:24;;;;;;;0.00;0.00;;;;;;;6.57;100.00;99656.47;6243216;22;20004;-75
2022/12/24 03:27:50;;;;;;;0.00;0.00;;;;;;;6.46;100.00;99634.66;6244547;22;20031;-74
2022/12/24 03:30:17;;;;;;;0.08;0.08;;;;;;;6.43;100.00;99634.34;6215080;22;20011;-76
2022/12/24 03:32:43;;;;;;;0.00;0.00;;;;;;;6.34;100.00;99628.56;6246561;22;20357;-74
2022/12/24 03:35:10;;;;;;;0.00;0.00;;;;;;;6.27;100.00;99630.69;6244315;22;20033;-75
2022/12/24 03:37:36;;;;;;;0.00;0.00;;;;;;;6.28;100.00;99635.84;6241328;22;20007;-76
2022/12/24 03:40:01;;;;;;;0.03;0.03;;;;;;;6.26;100.00;99635.28;6244325;22;20905;-75
2022/12/24 03:42:26;;;;;;;0.10;0.10;;;;;;;6.25;100.00;99632.81;6215945;22;20027;-76
2022/12/24 03:44:52;;;;;;;0.00;0.00;;;;;;;6.25;100.00;99655.38;6221844;22;20004;-75
2022/12/24 03:47:17;;;;;;;0.00;0.00;;;;;;;6.27;100.00;99657.81;6266604;22;20000;-74
2022/12/24 03:49:43;;;;;;;0.10;0.10;;;;;;;6.19;100.00;99634.69;6242610;22;20008;-74
2022/12/24 03:52:08;;;;;;;0.00;0.00;;;;;;;6.28;100.00;99648.63;6221174;22;20010;-72
2022/12/24 03:54:33;;;;;;;0.00;0.00;;;;;;;6.21;100.00;99650.72;6265044;22;20060;-74
2022/12/24 03:56:59;;;;;;;0.00;0.00;;;;;;;6.28;100.00;99673.88;6195003;22;20007;-75
2022/12/24 03:59:26;;;;;;;0.00;0.00;;;;;;;6.26;100.00;99673.31;6267119;22;20007;-76
2022/12/24 04:01:52;;;;;;;0.00;0.00;;;;;;;6.30;100.00;99662.75;6220633;22;20011;-75
2022/12/24 04:04:17;;;;;;;0.00;0.00;;;;;;;6.30;100.00;99660.03;6214315;22;20004;-75
2022/12/24 04:06:43;;;;;;;0.00;0.00;;;;;;;6.26;100.00;99656.19;6244103;22;20008;-75
2022/12/24 04:09:10;;;;;;;0.00;0.00;;;;;;;6.23;100.00;99660.22;6245599;22;20446;-75
2022/12/24 04:11:39;;;;;;;0.05;0.05;;;;;;;6.18;100.00;99664.81;6239777;22;20061;-74
2022/12/24 04:14:04;;;;;;;0.08;0.08;;;;;;;6.14;100.00;99666.38;6243777;22;20015;-74
2022/12/24 04:16:30;;;;;;;0.00;0.00;;;;;;;6.17;100.00;99674.00;6239683;22;20334;-74
2022/12/24 04:18:55;;;;;;;0.00;0.00;;;;;;;6.05;100.00;99672.25;6220439;22;20008;-74
2022/12/24 04:21:21;;;;;;;0.05;0.05;;;;;;;6.04;100.00;99686.09;6216186;22;20062;-75
2022/12/24 04:23:46;;;;;;;0.00;0.00;;;;;;;6.01;100.00;99683.88;6244068;22;20065;-75
2022/12/24 04:26:13;;;;;;;0.00;0.00;;;;;;;6.05;100.00;99693.97;6245062;22;20031;-75
2022/12/24 04:28:40;;;;;;;0.00;0.00;;;;;;;6.07;100.00;99696.44;6239496;22;20012;-73
2022/12/24 04:31:09;;;;;;;0.00;0.00;;;;;;;6.06;100.00;99689.34;6246293;22;20067;-75
2022/12/24 04:33:35;;;;;;;0.00;0.00;;;;;;;6.05;100.00;99693.97;6267464;22;20307;-76
2022/12/24 04:36:03;;;;;;;0.00;0.00;;;;;;;5.99;100.00;99697.72;6244004;22;20015;-74
2022/12/24 04:38:29;;;;;;;0.00;0.00;;;;;;;5.90;100.00;99691.88;6243311;22;20000;-72
2022/12/24 04:41:05;;;;;;;0.00;0.00;;;;;;;5.93;100.00;99694.06;6244397;22;20031;-74
2022/12/24 04:43:31;;;;;;;0.00;0.00;;;;;;;5.85;100.00;99704.56;6244676;22;20030;-74
2022/12/24 04:46:10;;;;;;;0.00;0.00;;;;;;;5.86;100.00;99706.19;6270938;22;20462;-74
2022/12/24 04:48:36;;;;;;;0.00;0.00;;;;;;;5.81;100.00;99693.41;6242499;22;20086;-74
2022/12/24 04:51:03;;;;;;;0.10;0.10;;;;;;;5.79;100.00;99694.72;6244262;22;20034;-75
2022/12/24 04:53:29;;;;;;;0.00;0.00;;;;;;;5.72;100.00;99684.88;6242861;22;20677;-74
2022/12/24 04:55:55;;;;;;;0.00;0.00;;;;;;;5.70;100.00;99687.00;6264235;22;20003;-74
2022/12/24 04:58:20;;;;;;;0.00;0.00;;;;;;;5.63;100.00;99691.78;6274723;22;20484;-74
2022/12/24 05:00:46;;;;;;;0.00;0.00;;;;;;;5.59;100.00;99696.91;6216456;22;20461;-74
2022/12/24 05:03:11;;;;;;;0.00;0.00;;;;;;;5.58;100.00;99697.16;6219144;22;20082;-75
2022/12/24 05:05:37;;;;;;;0.00;0.00;;;;;;;5.51;100.00;99694.63;6193020;22;20004;-74
2022/12/24 05:08:02;;;;;;;0.00;0.00;;;;;;;5.47;100.00;99681.81;6218647;22;20466;-74
2022/12/24 05:10:28;;;;;;;0.10;0.10;;;;;;;5.49;100.00;99698.66;6274079;22;20058;-74
2022/12/24 05:12:53;;;;;;;0.00;0.00;;;;;;;5.42;100.00;99696.94;6191551;22;20431;-75
2022/12/24 05:15:19;;;;;;;0.00;0.00;;;;;;;5.40;100.00;99692.84;6244620;22;20004;-74
2022/12/24 05:17:44;;;;;;;0.00;0.00;;;;;;;5.40;100.00;99709.94;6244359;22;20000;-75
2022/12/24 05:20:17;;;;;;;0.10;0.10;;;;;;;5.27;100.00;99694.03;6266755;22;20333;-74
2022/12/24 05:28:16;;;;;;;0.00;0.00;;;;;;;5.35;100.00;99723.41;6266693;22;20053;-74
2022/12/24 05:30:42;;;;;;;0.00;0.00;;;;;;;5.40;100.00;99730.78;6218574;22;20008;-74
2022/12/24 05:33:08;;;;;;;0.10;0.10;;;;;;;5.35;100.00;99717.97;6220058;22;20517;-76
2022/12/24 05:35:33;;;;;;;0.00;0.00;;;;;;;5.39;100.00;99724.56;6267303;22;20000;-75
2022/12/24 05:38:01;;;;;;;0.10;0.10;;;;;;;5.44;100.00;99728.41;6219308;22;20034;-76
2022/12/24 05:40:26;;;;;;;0.10;0.10;;;;;;;5.47;100.00;99723.31;6239819;22;20030;-74
2022/12/24 05:42:52;;;;;;;0.00;0.00;;;;;;;5.49;100.00;99726.59;6195993;22;20340;-74
2022/12/24 05:45:17;;;;;;;0.00;0.00;;;;;;;5.47;100.00;99725.19;6214410;22;20008;-74
2022/12/24 05:47:43;;;;;;;0.10;0.10;;;;;;;5.50;100.00;99725.50;6219538;22;20019;-74
2022/12/24 05:50:09;;;;;;;0.00;0.00;;;;;;;5.53;100.00;99724.19;6270952;22;20007;-74
2022/12/24 05:52:34;;;;;;;0.00;0.00;;;;;;;5.56;100.00;99726.41;6237737;22;20011;-74
2022/12/24 05:54:59;;;;;;;0.10;0.10;;;;;;;5.52;100.00;99722.56;6244145;22;20437;-75
2022/12/24 05:57:27;;;;;;;0.00;0.00;;;;;;;5.52;100.00;99727.97;6213820;22;20026;-74
2022/12/24 05:59:53;;;;;;;0.00;0.00;;;;;;;5.46;100.00;99712.72;6218712;22;20054;-74
2022/12/24 06:02:18;;;;;;;0.00;0.00;;;;;;;5.42;100.00;99713.22;6212884;22;20350;-75
2022/12/24 06:04:44;;;;;;;0.00;0.00;;;;;;;5.45;100.00;99716.47;6219603;22;20035;-73
2022/12/24 06:07:09;;;;;;;0.10;0.10;;;;;;;5.50;100.00;99722.00;6217039;22;20091;-74
2022/12/24 06:09:34;;;;;;;0.10;0.10;;;;;;;5.50;100.00;99724.69;6211324;22;20598;-73
2022/12/24 06:12:00;;;;;;;0.00;0.00;;;;;;;5.52;100.00;99736.09;6239234;22;20020;-73
2022/12/24 06:14:25;;;;;;;0.00;0.00;;;;;;;5.52;100.00;99738.81;6237988;23;20008;-72
2022/12/24 06:16:51;;;;;;;0.00;0.00;;;;;;;5.48;100.00;99727.66;6188761;22;20086;-73
2022/12/24 06:19:16;;;;;;;0.00;0.00;;;;;;;5.39;100.00;99743.53;6243473;22;20361;-73
2022/12/24 06:21:42;;;;;;;0.00;0.00;;;;;;;5.30;100.00;99747.75;6190674;22;20011;-73
2022/12/24 06:24:07;;;;;;;0.10;0.10;;;;;;;5.18;100.00;99741.56;6221321;22;20091;-73
2022/12/24 06:26:33;;;;;;;0.00;0.00;;;;;;;5.06;100.00;99742.47;6218641;22;20124;-73
2022/12/24 06:28:58;;;;;;;0.10;0.10;;;;;;;5.04;100.00;99755.47;6222175;22;20419;-74
2022/12/24 06:31:24;;;;;;;0.10;0.10;;;;;;;5.00;100.00;99765.16;6246573;22;20295;-74
2022/12/24 06:33:50;;;;;;;0.00;0.00;;;;;;;4.92;100.00;99757.44;6240665;22;20023;-73
2022/12/24 06:36:19;;;;;;;0.00;0.00;;;;;;;4.96;100.00;99758.56;6246119;22;20054;-74
2022/12/24 06:38:46;;;;;;;0.00;0.00;;;;;;;4.99;100.00;99762.69;6241854;22;20322;-74
2022/12/24 06:41:12;;;;;;;0.00;0.00;;;;;;;5.05;100.00;99773.38;6246123;22;19996;-75
2022/12/24 06:43:37;;;;;;;0.00;0.00;;;;;;;5.07;100.00;99765.81;6218139;22;20114;-75
2022/12/24 06:46:03;;;;;;;0.00;0.00;;;;;;;5.04;100.00;99776.34;6221134;22;20016;-74
2022/12/24 06:48:29;;;;;;;0.00;0.00;;;;;;;5.03;100.00;99764.66;6273920;22;20075;-75
2022/12/24 06:50:54;;;;;;;0.00;0.00;;;;;;;5.05;100.00;99757.13;6241179;22;20038;-73
2022/12/24 06:53:22;;;;;;;0.00;0.00;;;;;;;5.18;100.00;99760.56;6246075;22;19996;-75
2022/12/24 06:55:47;;;;;;;0.00;0.00;;;;;;;5.25;100.00;99767.44;6240923;22;20338;-74
2022/12/24 06:58:13;;;;;;;0.10;0.10;;;;;;;5.13;100.00;99752.34;6273529;22;20004;-74
2022/12/24 07:00:46;;;;;;;0.00;0.00;;;;;;;5.17;100.00;99772.44;6239400;22;19999;-74
2022/12/24 07:03:11;;;;;;;0.00;0.00;;;;;;;5.02;100.00;99763.03;6244276;22;20002;-75
2022/12/24 07:05:37;;;;;;;0.00;0.00;;;;;;;5.02;100.00;99778.44;6242635;22;20008;-74
2022/12/24 07:08:05;;;;;;;0.00;0.00;;;;;;;4.93;100.00;99771.78;6245437;22;20008;-75
2022/12/24 07:10:31;;;;;;;0.00;0.00;;;;;;;4.88;100.00;99777.94;6246758;22;20008;-75
2022/12/24 07:12:56;;;;;;;0.10;0.10;;;;;;;4.85;100.00;99781.16;6272074;22;20027;-75
2022/12/24 07:15:22;;;;;;;0.00;0.00;;;;;;;4.85;100.00;99779.25;6243886;22;20008;-75
2022/12/24 07:17:47;;;;;;;0.00;0.00;;;;;;;4.79;100.00;99771.28;6194605;22;20087;-73
2022/12/24 07:20:13;;;;;;;0.00;0.00;;;;;;;4.79;100.00;99773.97;6245889;22;20012;-75
2022/12/24 07:22:39;;;;;;;0.10;0.10;;;;;;;4.71;100.00;99767.06;6252055;22;20023;-75
2022/12/24 07:25:05;;;;;;;0.00;0.00;;;;;;;4.76;100.00;99774.47;6269073;22;20004;-76
2022/12/24 07:27:31;;;;;;;0.00;0.00;;;;;;;4.83;100.00;99773.28;6248304;22;20004;-74
2022/12/24 07:29:56;;;;;;;0.00;0.00;;;;;;;4.82;100.00;99758.06;6253103;22;20079;-75
2022/12/24 07:32:21;;;;;;;0.00;0.00;;;;;;;4.96;100.00;99766.69;6248220;22;20007;-73
2022/12/24 07:34:47;;;;;;;0.00;0.00;;;;;;;5.02;100.00;99779.28;6221521;22;20094;-73
2022/12/24 07:37:13;;;;;;;0.10;0.10;;;;;;;4.91;100.00;99777.47;6220948;22;20042;-73
2022/12/24 07:39:38;;;;;;;0.00;0.00;;;;;;;4.97;100.00;99781.91;6225062;22;20007;-74
2022/12/24 07:42:06;;;;;;;0.00;0.00;;;;;;;4.96;100.00;99780.25;6219282;22;20035;-75
2022/12/24 07:44:32;;;;;;;0.00;0.00;;;;;;;4.92;100.00;99784.53;6196853;22;20011;-75
2022/12/24 07:47:01;;;;;;;0.00;0.00;;;;;;;4.78;100.00;99777.78;6275461;22;20449;-77
2022/12/24 07:49:26;;;;;;;0.10;0.10;;;;;;;4.77;100.00;99782.34;6245805;22;20099;-76
2022/12/24 07:51:54;;;;;;;0.00;0.00;;;;;;;4.68;100.00;99779.22;6242109;22;20093;-76
2022/12/24 07:54:24;;;;;;;0.00;0.00;;;;;;;4.61;100.00;99775.81;6244493;22;20019;-74
2022/12/24 07:56:50;;;;;;;0.00;0.00;;;;;;;4.55;100.00;99787.63;6245944;22;20015;-73
2022/12/24 07:59:15;;;;;;;0.00;0.00;;;;;;;4.57;100.00;99806.34;6240759;22;20071;-74
2022/12/24 08:01:45;;;;;;;0.00;0.00;;;;;;;4.55;100.00;99798.47;6219685;22;20094;-75
2022/12/24 08:04:11;;;;;;;0.00;0.00;;;;;;;4.48;100.00;99784.25;6269065;22;20073;-75
2022/12/24 08:06:36;;;;;;;0.00;0.00;;;;;;;4.56;100.00;99797.41;6246570;22;20587;-74
2022/12/24 08:09:02;;;;;;;0.00;0.00;;;;;;;4.54;100.00;99799.53;6224113;22;20010;-76
2022/12/24 08:11:27;;;;;;;0.10;0.10;;;;;;;4.52;100.00;99802.47;6239000;22;20338;-76
2022/12/24 08:13:53;;;;;;;0.00;0.00;;;;;;;4.48;100.00;99795.06;6218315;22;20067;-75
2022/12/24 08:16:30;;;;;;;;;;;;;;;;;;;;;
2022/12/24 08:19:07;;;;;;;0.00;0.00;;;;;;;4.60;100.00;99787.75;6272856;22;20087;-75
2022/12/24 08:21:35;;;;;;;0.00;0.00;;;;;;;4.65;100.00;99789.72;6220833;22;20011;-76
2022/12/24 08:24:00;;;;;;;0.00;0.00;;;;;;;4.60;100.00;99790.47;6248279;22;20007;-76
2022/12/24 08:26:26;;;;;;;0.10;0.10;;;;;;;4.61;100.00;99805.63;6245424;22;20007;-75
2022/12/24 08:28:51;;;;;;;0.00;0.00;;;;;;;4.61;100.00;99797.50;6245834;22;20086;-75
2022/12/24 08:31:17;;;;;;;0.00;0.00;;;;;;;4.63;100.00;99803.50;6245341;22;20008;-77
2022/12/24 08:33:42;;;;;;;0.00;0.00;;;;;;;4.72;100.00;99796.63;6213523;22;20007;-75
2022/12/24 08:36:08;;;;;;;0.10;0.10;;;;;;;4.79;100.00;99795.66;6244050;22;20570;-74
2022/12/24 08:38:33;;;;;;;0.03;0.03;;;;;;;4.84;100.00;99795.75;6267542;22;20004;-74
2022/12/24 08:41:01;;;;;;;0.00;0.00;;;;;;;4.90;100.00;99798.28;6247749;22;20004;-78
2022/12/24 08:43:30;;;;;;;0.03;0.03;;;;;;;4.95;100.00;99789.47;6248670;22;20019;-80
2022/12/24 08:46:04;;;;;;;0.00;0.00;;;;;;;5.02;100.00;99789.28;6249699;22;20042;-80
2022/12/24 08:48:31;;;;;;;0.10;0.10;;;;;;;5.19;100.00;99811.00;6252946;22;20315;-82
2022/12/24 08:50:59;;;;;;;0.00;0.00;;;;;;;5.25;100.00;99804.59;6249018;22;20396;-82
2022/12/24 08:53:24;;;;;;;0.00;0.00;;;;;;;5.45;100.00;99800.53;6253637;22;20074;-80
2022/12/24 08:56:01;;;;;;;0.00;0.00;;;;;;;5.57;100.00;99804.00;6222865;22;20016;-81
2022/12/24 08:58:36;;;;;;;0.00;0.00;;;;;;;5.54;100.00;99796.38;6251507;22;20078;-81
2022/12/24 09:02:01;;;;;;;0.00;0.00;;;;;;;5.78;100.00;99807.81;6251394;22;20003;-81
2022/12/24 09:04:42;;;;;;;0.00;0.00;;;;;;;5.73;100.00;99780.63;6269917;22;20037;-81
2022/12/24 09:07:30;;;;;;;0.00;0.00;;;;;;;5.99;100.00;99808.97;6254172;22;20090;-82
2022/12/24 09:10:46;;;;;;;;;;;;;;;;;;;;;
2022/12/24 09:16:33;;;;;;;0.00;0.00;;;;;;;6.52;100.00;99816.69;6059748;23;20006;-83
2022/12/24 09:20:06;;;;;;;;;;;;;;;;;;;;;
2022/12/24 09:29:50;;;;;;;0.00;0.00;;;;;;;6.95;100.00;99825.84;5856690;24;20017;-82
2022/12/24 09:36:58;;;;;;;;;;;;;;;;;;;;;
2022/12/24 09:40:19;;;;;;;0.00;0.00;;;;;;;7.15;100.00;99815.19;5902126;24;20033;-82
2022/12/24 09:42:59;;;;;;;0.08;0.08;;;;;;;7.25;100.00;99829.94;5901406;24;20009;-82
2022/12/24 09:45:39;;;;;;;0.10;0.10;;;;;;;7.39;100.00;99847.47;5987491;23;20019;-83
2022/12/24 09:49:08;;;;;;;;;;;;;;;;;;;;;
2022/12/24 09:52:38;;;;;;;0.10;0.10;;;;;;;7.47;100.00;99813.53;5964521;23;20067;-84
2022/12/24 09:56:08;;;;;;;;;;;;;;;;;;;;;
2022/12/24 09:59:14;;;;;;;0.00;0.00;;;;;;;7.91;100.00;99816.00;6071227;23;20579;-82
2022/12/24 10:15:18;;;;;;;;;;;;;;;;;;;;;
2022/12/24 10:18:38;;;;;;;;;;;;;;;;;;;;;
2022/12/24 10:22:22;;;;;;;;;;;;;;;;;;;;;
2022/12/24 10:29:02;;;;;;;;;;;;;;;;;;;;;
2022/12/24 10:32:07;;;;;;;;;;;;;;;8.72;100.00;99852.09;6119479;23;20045;-82
2022/12/24 10:38:25;;;;;;;0.00;0.00;;;;;;;8.82;100.00;99843.94;6126366;23;20005;-83
2022/12/24 10:41:19;;;;;;;;;;;;;;;;;;;;;
2022/12/24 10:44:13;;;;;;;0.00;0.00;;;;;;;8.90;100.00;99846.13;6123312;23;20505;-81
2022/12/24 10:47:25;;;;;;;0.00;0.00;;;;;;;9.03;100.00;99861.16;6128337;23;20008;-80
2022/12/24 10:50:12;;;;;;;0.00;0.00;;;;;;;8.99;100.00;99832.78;6175749;23;20254;-82
2022/12/24 10:53:09;;;;;;;;;;;;;;;;;;;;;
2022/12/24 10:56:27;;;;;;;;;;;;;;;;;;;;;
2022/12/24 10:59:11;;;;;;;0.00;0.00;;;;;;;9.64;100.00;99842.38;6214699;23;20039;-83
2022/12/24 11:02:45;;;;;;;;;;;;;;;;;;;;;
2022/12/24 11:06:12;;;;;;;0.00;0.00;;;;;;;10.71;100.00;99840.50;6221171;23;20036;-80
2022/12/24 11:08:51;;;;;;;0.00;0.00;;;;;;;10.81;100.00;99829.50;6072726;23;20008;-82
2022/12/24 11:12:10;;;;;;;;;;;;;;;;;;;;;
2022/12/24 11:15:05;;;;;;;0.00;0.00;;;;;;;10.72;100.00;99825.72;6143613;23;20047;-82
2022/12/24 11:18:45;;;;;;;0.00;0.00;;;;;;;10.49;100.00;99838.94;6170711;23;20727;-83
2022/12/24 11:20:51;;;;;;;0.10;0.10;;;;;;;10.57;100.00;99852.06;6192779;23;20009;-82
2022/12/24 11:23:25;;;;;;;0.00;0.00;;;;;;;10.44;100.00;99831.59;6268616;22;20007;-81
2022/12/24 11:25:59;;;;;;;0.00;0.00;;;;;;;10.58;100.00;99829.06;6308473;22;20323;-83
2022/12/24 11:28:31;;;;;;;0.05;0.05;;;;;;;10.91;100.00;99851.31;6308125;22;20087;-82
2022/12/24 11:31:17;;;;;;;0.00;0.00;;;;;;;11.14;100.00;99838.03;6311623;22;20011;-83
2022/12/24 11:34:17;;;;;;;;;;;;;;;;;;;;;
2022/12/24 11:36:53;;;;;;;;;;;;;;;;;;;;;
2022/12/24 11:39:21;;;;;;;0.00;0.00;;;;;;;11.55;100.00;99848.72;6310585;22;20026;-82
2022/12/24 11:41:49;;;;;;;0.00;0.00;;;;;;;11.42;100.00;99838.38;6312410;22;20065;-82
2022/12/24 11:44:27;;;;;;;0.00;0.00;;;;;;;11.21;100.00;99837.72;6281310;22;20049;-82
2022/12/24 11:46:57;;;;;;;0.10;0.10;;;;;;;11.07;100.00;99837.53;6305257;22;19995;-81
2022/12/24 11:49:38;;;;;;;0.10;0.10;;;;;;;10.85;100.00;99836.06;6304672;22;20003;-82
2022/12/24 11:52:12;;;;;;;0.00;0.00;;;;;;;10.75;100.00;99852.50;6310849;22;20003;-83
2022/12/24 11:55:12;;;;;;;;;;;;;;;;;;;;;
2022/12/24 11:58:01;;;;;;;0.00;0.00;;;;;;;10.72;100.00;99834.75;6307988;22;20389;-83
2022/12/24 12:00:27;;;;;;;0.00;0.00;;;;;;;10.66;100.00;99822.22;6252062;22;20038;-83
2022/12/24 12:02:59;;;;;;;0.00;0.00;;;;;;;10.65;100.00;99837.78;6285252;22;20003;-82
2022/12/24 12:06:35;;;;;;;0.03;0.03;;;;;;;10.53;100.00;99823.63;6313276;22;19999;-82
2022/12/24 12:21:51;;;;;;;0.00;0.00;;;;;;;10.77;100.00;99806.56;6303211;22;20441;-83
2022/12/24 12:28:12;;;;;;;;;;;;;;;;;;;;;
2022/12/24 12:31:26;;;;;;;0.00;0.00;;;;;;;11.26;100.00;99813.88;6298255;22;20436;-84
2022/12/24 12:38:03;;;;;;;;;;;;;;;;;;;;;
2022/12/24 12:41:07;;;;;;;0.00;0.00;;;;;;;11.69;100.00;99833.22;6307080;22;20050;-83
2022/12/24 12:44:06;;;;;;;0.00;0.00;;;;;;;11.95;100.00;99829.47;6308144;22;20018;-85
2022/12/24 12:47:05;;;;;;;0.00;0.00;;;;;;;12.13;100.00;99833.38;6307371;22;20042;-83
2022/12/24 12:50:06;;;;;;;;;;;;;;;;;;;;;
2022/12/24 13:04:00;;;;;;;0.00;0.00;;;;;;;12.09;100.00;99818.63;6212358;23;20055;-82
2022/12/24 13:07:10;;;;;;;;;;;;;;;;;;;;;
2022/12/24 13:10:27;;;;;;;;;;;;;;;;;;;;;
2022/12/24 13:16:41;;;;;;;0.00;0.00;;;;;;;11.15;100.00;99801.38;6191748;23;20016;-85
2022/12/24 13:19:50;;;;;;;;;;;;;;;;;;;;;
2022/12/24 13:25:58;;;;;;;0.05;0.05;;;;;;;11.11;100.00;99797.56;6300574;22;20078;-80
2022/12/24 13:28:45;;;;;;;0.00;0.00;;;;;;;11.12;100.00;99791.00;6301133;22;20889;-81
2022/12/24 13:31:10;;;;;;;0.00;0.00;;;;;;;11.04;100.00;99805.28;6303032;22;20089;-80
2022/12/24 13:37:37;;;;;;;0.00;0.00;;;;;;;11.27;100.00;99803.75;6287486;22;20033;-80
2022/12/24 13:43:16;;;;;;;;;;;;;;;;;;;;;
2022/12/24 13:46:04;;;;;;;;;;;;;;;;;;;;;
2022/12/24 13:48:33;;;;;;;0.00;0.00;;;;;;;11.48;100.00;99771.56;6302675;22;20063;-81
2022/12/24 13:51:27;;;;;;;;;;;;;;;;;;;;;
2022/12/24 13:54:16;;;;;;;0.00;0.00;;;;;;;11.46;100.00;99763.63;6302556;22;20432;-79
2022/12/24 13:56:45;;;;;;;0.00;0.00;;;;;;;11.57;100.00;99769.81;6302737;22;20432;-80
2022/12/24 13:59:46;;;;;;;0.00;0.00;;;;;;;11.69;100.00;99783.91;6298965;22;20000;-79
2022/12/24 14:02:45;;;;;;;0.00;0.00;;;;;;;11.68;100.00;99785.06;6180418;23;20014;-79
2022/12/24 14:05:39;;;;;;;0.00;0.00;;;;;;;11.62;100.00;99782.63;6295185;22;20003;-79
2022/12/24 14:08:42;;;;;;;0.00;0.00;;;;;;;11.82;100.00;99787.09;6299352;22;20282;-78
2022/12/24 14:11:24;;;;;;;0.10;0.10;;;;;;;11.65;100.00;99771.94;6302927;22;20357;-81
2022/12/24 14:14:11;;;;;;;0.00;0.00;;;;;;;11.49;100.00;99773.16;6303185;22;20034;-82
2022/12/24 14:20:34;;;;;;;;;;;;;;;;;;;;;
2022/12/24 14:23:43;;;;;;;0.00;0.00;;;;;;;11.64;100.00;99742.91;6304000;22;20082;-81
2022/12/24 14:26:15;;;;;;;0.10;0.10;;;;;;;11.48;100.00;99775.09;6239953;22;20007;-81
2022/12/24 14:28:55;;;;;;;0.00;0.00;;;;;;;11.39;100.00;99757.66;6304605;22;19999;-80
2022/12/24 14:31:26;;;;;;;0.00;0.00;;;;;;;11.69;100.00;99733.81;6309584;22;20006;-84
2022/12/24 14:38:20;;;;;;;;;;;;;;;;;;;;;
2022/12/24 14:44:14;;;;;;;0.00;0.00;;;;;;;12.09;100.00;99763.81;6116487;23;20006;-80
2022/12/24 14:54:34;;;;;;;;;;;;;;;;;;;;;
2022/12/24 14:57:56;;;;;;;;;;;;;;;;;;;;;
2022/12/24 15:04:08;;;;;;;0.00;0.00;;;;;;;10.96;100.00;99763.75;6161599;22;20440;-81
2022/12/24 15:07:33;;;;;;;;;;;;;;;;;;;;;
2022/12/24 15:13:36;;;;;;;;;;;;;;;;;;;;;
2022/12/24 15:16:10;;;;;;;0.00;0.00;;;;;;;10.15;100.00;99727.56;6211451;23;20512;-83
2022/12/24 15:18:49;;;;;;;0.10;0.10;;;;;;;10.21;100.00;99728.38;6301978;22;20003;-79
2022/12/24 15:22:40;;;;;;;;;;;;;;;;;;;;;
2022/12/24 15:25:56;;;;;;;0.10;0.10;;;;;;;10.18;100.00;99721.53;6212352;23;20060;-82
2022/12/24 15:28:53;;;;;;;;;;;;;;;;;;;;;
2022/12/24 15:34:47;;;;;;;0.10;0.10;;;;;;;10.04;100.00;99712.31;6298872;22;20065;-81
2022/12/24 15:37:46;;;;;;;;;;;;;;;;;;;;;
2022/12/24 15:40:23;;;;;;;0.00;0.00;;;;;;;10.00;100.00;99694.84;6311729;22;20041;-81
2022/12/24 15:42:50;;;;;;;0.00;0.00;;;;;;;10.03;100.00;99710.69;6305981;22;20334;-81
2022/12/24 15:45:26;;;;;;;0.00;0.00;;;;;;;9.98;100.00;99714.25;6307675;22;20003;-81
2022/12/24 15:48:42;;;;;;;;;;;;;;;;;;;;;
2022/12/24 15:51:21;;;;;;;;;;;;;;;;;;;;;
2022/12/24 15:57:39;;;;;;;;;;;;;;;;;;;;;
2022/12/24 16:00:36;;;;;;;;;;;;;;;;;;;;;
2022/12/24 16:13:58;;;;;;;0.00;0.00;;;;;;;9.06;100.00;99721.53;6295283;22;20078;-80
2022/12/24 16:17:10;;;;;;;0.00;0.00;;;;;;;9.08;100.00;99730.28;6131670;23;20021;-78
2022/12/24 16:20:24;;;;;;;0.00;0.00;;;;;;;9.11;100.00;99725.34;6171058;23;19997;-78
2022/12/24 16:23:14;;;;;;;0.00;0.00;;;;;;;9.15;100.00;99727.25;6302603;22;20026;-79
2022/12/24 16:25:48;;;;;;;0.00;0.00;;;;;;;9.21;100.00;99750.75;6297866;22;20412;-78
2022/12/24 16:28:14;;;;;;;0.00;0.00;;;;;;;9.13;100.00;99732.19;6306802;22;20004;-80